Glenn W Jones — WDC6543 — position and weather

sailwx.info

Track history (hours):
 
Tides and Currents Weather Stations Pressure Air Temp Water Temp Dewpoint Dewpoint Depression Visibility Wind Speed Wind Dir Waves Ship Positions

Glenn W Jones

Owner: American Commercial Lines LLC, Jeffersonville, IN. More information available from US FCC via Universal Licensing System and Coast Guard Vessel Documentation Center.

Last reported at 2017-Oct-14 00:21 UTC. Time now 2017-Oct-23 06:04 UTC.
Position N 32°40' W 091°08'.
Warning: this ship's position is 9 days out of date.

Length 25 m; draft 2.9 m.

Type: . MMSI: 367057710.

Date/timePositionNaut miles runAvg speedWind from/ knotsBaromVisibWave heightAir tempDewpointWater temp
2017-Oct-14 00:21N 32°40' W 091°08'1 3.9
2017-Oct-14 00:00N 32°39' W 091°09'2 4.2
2017-Oct-13 23:30N 32°37' W 091°09'1 1.7
2017-Oct-13 23:00N 32°36' W 091°09'2 4.7
2017-Oct-13 22:30N 32°35' W 091°07'2 4.0
2017-Oct-13 22:00N 32°33' W 091°06'2 3.9
2017-Oct-13 21:30N 32°31' W 091°06'3 5.3
2017-Oct-13 21:00N 32°28' W 091°07'2 4.9
2017-Oct-13 20:30N 32°27' W 091°05'3 5.0
2017-Oct-13 20:01N 32°26' W 091°02'2 4.9
2017-Oct-13 19:30N 32°25' W 090°60'3 5.2
2017-Oct-13 19:00N 32°22' W 091°00'3 5.2
2017-Oct-13 18:31N 32°21' W 090°58'1 1.8
2017-Oct-13 18:00N 32°21' W 090°56'0 0.0
2017-Oct-13 17:30N 32°21' W 090°56'0 0.0
2017-Oct-13 17:00N 32°21' W 090°56'0 0.0
2017-Oct-13 16:30N 32°21' W 090°56'0 0.0
2017-Oct-13 16:01N 32°21' W 090°56'0 0.0
2017-Oct-13 15:30N 32°21' W 090°56'0 0.0
2017-Oct-13 15:00N 32°21' W 090°56'0 0.0
2017-Oct-13 14:30N 32°21' W 090°56'2 4.2
2017-Oct-13 14:00N 32°20' W 090°54'3 5.3
2017-Oct-13 13:30N 32°18' W 090°56'3 5.4
2017-Oct-13 13:00N 32°16' W 090°58'2 4.3
2017-Oct-13 12:30N 32°14' W 090°59'2 5.0
2017-Oct-13 12:01N 32°12' W 090°59'2 4.4
2017-Oct-13 11:30N 32°10' W 091°00'2 4.5
2017-Oct-13 11:00N 32°07' W 091°01'2 4.3
2017-Oct-13 10:30N 32°08' W 091°04'2 4.6
2017-Oct-13 10:00N 32°08' W 091°06'2 4.0
2017-Oct-13 09:29N 32°06' W 091°05'2 0.6
2017-Oct-13 06:38N 32°05' W 091°04'0 1.1
2017-Oct-13 06:27N 32°05' W 091°04'2 3.5
2017-Oct-13 06:00N 32°03' W 091°03'3 5.4
2017-Oct-13 05:31N 32°01' W 091°05'2 4.9
2017-Oct-13 05:00N 31°59' W 091°07'3 4.7
2017-Oct-13 04:20N 31°59' W 091°11'2 4.9
2017-Oct-13 04:00N 31°57' W 091°11'3 5.3
2017-Oct-13 03:25N 31°54' W 091°12'2 4.4
2017-Oct-13 02:59N 31°53' W 091°14'3 4.8
2017-Oct-13 02:22N 31°51' W 091°17'3 3.9
2017-Oct-13 01:31N 31°51' W 091°21'0 4.3
2017-Oct-13 01:30N 31°51' W 091°21'  
2017-Oct-09 14:12N 31°42' W 091°24'7 6.9
2017-Oct-09 13:08N 31°49' W 091°21'7 5.2
2017-Oct-09 11:51N 31°52' W 091°14'8 6.7
2017-Oct-09 10:41N 31°59' W 091°10'1 7.5
2017-Oct-09 10:30N 31°59' W 091°08'3 6.7
2017-Oct-09 10:00N 32°00' W 091°05'6 6.4
2017-Oct-09 09:03N 32°06' W 091°06'0 7.1
2017-Oct-09 09:00N 32°07' W 091°06'1 2.3
2017-Oct-09 08:30N 32°08' W 091°06'3 5.6
2017-Oct-09 08:00N 32°07' W 091°03'3 5.7
2017-Oct-09 07:30N 32°09' W 091°00'4 7.1
2017-Oct-09 07:00N 32°13' W 090°59'4 7.4
2017-Oct-09 06:30N 32°16' W 090°58'3 6.3
2017-Oct-09 06:01N 32°18' W 090°55'3 5.0
2017-Oct-09 05:30N 32°21' W 090°55'3 6.2
2017-Oct-09 05:00N 32°21' W 090°59'3 5.1
2017-Oct-09 04:31N 32°23' W 090°60'3 6.3
2017-Oct-09 04:00N 32°26' W 091°02'4 7.1
2017-Oct-09 03:30N 32°27' W 091°06'3 6.4
2017-Oct-09 03:00N 32°31' W 091°07'4 7.2
2017-Oct-09 02:30N 32°34' W 091°06'3 7.0
2017-Oct-09 02:01N 32°37' W 091°09'  
Track history (hours):
 
Tides and Currents Weather Stations Pressure Air Temp Water Temp Dewpoint Dewpoint Depression Visibility Wind Speed Wind Dir Waves Ship Positions

Glenn W Jones

Owner: American Commercial Lines LLC, Jeffersonville, IN. More information available from US FCC via Universal Licensing System and Coast Guard Vessel Documentation Center.

Last reported at 2017-Oct-14 00:21 UTC. Time now 2017-Oct-23 06:04 UTC.
Position N 32°40' W 091°08'.
Warning: this ship's position is 9 days out of date.

Length 25 m; draft 2.9 m.

Type: . MMSI: 367057710.

Date/timePositionNaut miles runAvg speedWind from/ knotsBaromVisibWave heightAir tempDewpointWater temp
2017-Oct-14 00:21N 32°40' W 091°08'1 3.9
2017-Oct-14 00:00N 32°39' W 091°09'2 4.2
2017-Oct-13 23:30N 32°37' W 091°09'1 1.7
2017-Oct-13 23:00N 32°36' W 091°09'2 4.7
2017-Oct-13 22:30N 32°35' W 091°07'2 4.0
2017-Oct-13 22:00N 32°33' W 091°06'2 3.9
2017-Oct-13 21:30N 32°31' W 091°06'3 5.3
2017-Oct-13 21:00N 32°28' W 091°07'2 4.9
2017-Oct-13 20:30N 32°27' W 091°05'3 5.0
2017-Oct-13 20:01N 32°26' W 091°02'2 4.9
2017-Oct-13 19:30N 32°25' W 090°60'3 5.2
2017-Oct-13 19:00N 32°22' W 091°00'3 5.2
2017-Oct-13 18:31N 32°21' W 090°58'1 1.8
2017-Oct-13 18:00N 32°21' W 090°56'0 0.0
2017-Oct-13 17:30N 32°21' W 090°56'0 0.0
2017-Oct-13 17:00N 32°21' W 090°56'0 0.0
2017-Oct-13 16:30N 32°21' W 090°56'0 0.0
2017-Oct-13 16:01N 32°21' W 090°56'0 0.0
2017-Oct-13 15:30N 32°21' W 090°56'0 0.0
2017-Oct-13 15:00N 32°21' W 090°56'0 0.0
2017-Oct-13 14:30N 32°21' W 090°56'2 4.2
2017-Oct-13 14:00N 32°20' W 090°54'3 5.3
2017-Oct-13 13:30N 32°18' W 090°56'3 5.4
2017-Oct-13 13:00N 32°16' W 090°58'2 4.3
2017-Oct-13 12:30N 32°14' W 090°59'2 5.0
2017-Oct-13 12:01N 32°12' W 090°59'2 4.4
2017-Oct-13 11:30N 32°10' W 091°00'2 4.5
2017-Oct-13 11:00N 32°07' W 091°01'2 4.3
2017-Oct-13 10:30N 32°08' W 091°04'2 4.6
2017-Oct-13 10:00N 32°08' W 091°06'2 4.0
2017-Oct-13 09:29N 32°06' W 091°05'2 0.6
2017-Oct-13 06:38N 32°05' W 091°04'0 1.1
2017-Oct-13 06:27N 32°05' W 091°04'2 3.5
2017-Oct-13 06:00N 32°03' W 091°03'3 5.4
2017-Oct-13 05:31N 32°01' W 091°05'2 4.9
2017-Oct-13 05:00N 31°59' W 091°07'3 4.7
2017-Oct-13 04:20N 31°59' W 091°11'2 4.9
2017-Oct-13 04:00N 31°57' W 091°11'3 5.3
2017-Oct-13 03:25N 31°54' W 091°12'2 4.4
2017-Oct-13 02:59N 31°53' W 091°14'3 4.8
2017-Oct-13 02:22N 31°51' W 091°17'3 3.9
2017-Oct-13 01:31N 31°51' W 091°21'0 4.3
2017-Oct-13 01:30N 31°51' W 091°21'  
2017-Oct-09 14:12N 31°42' W 091°24'7 6.9
2017-Oct-09 13:08N 31°49' W 091°21'7 5.2
2017-Oct-09 11:51N 31°52' W 091°14'8 6.7
2017-Oct-09 10:41N 31°59' W 091°10'1 7.5
2017-Oct-09 10:30N 31°59' W 091°08'3 6.7
2017-Oct-09 10:00N 32°00' W 091°05'6 6.4
2017-Oct-09 09:03N 32°06' W 091°06'0 7.1
2017-Oct-09 09:00N 32°07' W 091°06'1 2.3
2017-Oct-09 08:30N 32°08' W 091°06'3 5.6
2017-Oct-09 08:00N 32°07' W 091°03'3 5.7
2017-Oct-09 07:30N 32°09' W 091°00'4 7.1
2017-Oct-09 07:00N 32°13' W 090°59'4 7.4
2017-Oct-09 06:30N 32°16' W 090°58'3 6.3
2017-Oct-09 06:01N 32°18' W 090°55'3 5.0
2017-Oct-09 05:30N 32°21' W 090°55'3 6.2
2017-Oct-09 05:00N 32°21' W 090°59'3 5.1
2017-Oct-09 04:31N 32°23' W 090°60'3 6.3
2017-Oct-09 04:00N 32°26' W 091°02'4 7.1
2017-Oct-09 03:30N 32°27' W 091°06'3 6.4
2017-Oct-09 03:00N 32°31' W 091°07'4 7.2
2017-Oct-09 02:30N 32°34' W 091°06'3 7.0
2017-Oct-09 02:01N 32°37' W 091°09'  

Dump ship's entire track history